createdAt,value
2019-02-19T00:00:05.886Z,11.60
2019-02-19T00:02:34.848Z,11.60
2019-02-19T00:05:03.901Z,11.60
2019-02-19T00:07:33.155Z,11.60
2019-02-19T00:10:02.234Z,11.70
2019-02-19T00:12:31.207Z,11.70
2019-02-19T00:15:07.978Z,11.70
2019-02-19T00:17:31.216Z,11.70
2019-02-19T00:20:00.534Z,11.70
2019-02-19T00:22:29.558Z,11.70
2019-02-19T00:24:58.612Z,11.70
2019-02-19T00:27:27.943Z,11.70
2019-02-19T00:29:57.035Z,11.70
2019-02-19T00:32:26.000Z,11.70
2019-02-19T00:34:55.028Z,11.70
2019-02-19T00:37:24.373Z,11.70
2019-02-19T00:39:53.262Z,11.70
2019-02-19T00:42:22.423Z,11.70
2019-02-19T00:44:51.384Z,11.70
2019-02-19T00:47:20.355Z,11.70
2019-02-19T00:49:49.593Z,11.70
2019-02-19T00:52:18.616Z,11.80
2019-02-19T00:54:47.656Z,11.80
2019-02-19T00:57:16.702Z,11.80
2019-02-19T00:59:45.645Z,11.80
2019-02-19T01:02:14.926Z,11.80
2019-02-19T01:04:44.618Z,11.80
2019-02-19T01:07:13.904Z,11.80
2019-02-19T01:09:42.919Z,11.80
2019-02-19T01:12:11.963Z,11.80
2019-02-19T01:14:41.270Z,11.80
2019-02-19T01:17:10.198Z,11.80
2019-02-19T01:19:39.422Z,11.80
2019-02-19T01:22:09.442Z,11.80
2019-02-19T01:24:38.939Z,11.70
2019-02-19T01:27:08.454Z,11.70
2019-02-19T01:29:37.498Z,11.70
2019-02-19T01:32:06.528Z,11.70
2019-02-19T01:34:35.484Z,11.70
2019-02-19T01:37:04.605Z,11.60
2019-02-19T01:39:33.967Z,11.60
2019-02-19T01:42:03.108Z,11.60
2019-02-19T01:44:32.855Z,11.60
2019-02-19T01:47:01.709Z,11.50
2019-02-19T01:49:30.666Z,11.50
2019-02-19T01:51:59.705Z,11.40
2019-02-19T01:54:28.591Z,11.40
2019-02-19T01:56:58.049Z,11.40
2019-02-19T01:59:27.083Z,11.40
2019-02-19T02:01:56.126Z,11.30
2019-02-19T02:04:25.373Z,11.30
2019-02-19T02:06:54.295Z,11.30
2019-02-19T02:09:23.244Z,11.30
2019-02-19T02:11:52.873Z,11.30
2019-02-19T02:14:21.880Z,11.40
2019-02-19T02:16:51.522Z,11.40
2019-02-19T02:19:20.470Z,11.40
2019-02-19T02:21:49.426Z,11.40
2019-02-19T02:24:18.439Z,11.40
2019-02-19T02:26:47.462Z,11.30
2019-02-19T02:29:17.081Z,11.30
2019-02-19T02:31:46.156Z,11.30
2019-02-19T02:34:15.123Z,11.30
2019-02-19T02:36:44.445Z,11.40
2019-02-19T02:39:13.534Z,11.50
2019-02-19T02:41:43.035Z,11.60
2019-02-19T02:44:12.118Z,11.60
2019-02-19T02:46:41.172Z,11.70
2019-02-19T02:49:10.131Z,11.70
2019-02-19T02:51:39.184Z,11.70
2019-02-19T02:54:08.273Z,11.70
2019-02-19T02:56:37.246Z,11.70
2019-02-19T02:59:06.641Z,11.70
2019-02-19T03:01:35.632Z,11.70
2019-02-19T03:04:05.090Z,11.80
2019-02-19T03:06:51.085Z,11.80
2019-02-19T03:09:20.879Z,11.90
2019-02-19T03:11:49.916Z,12.00
2019-02-19T03:14:18.926Z,12.00
2019-02-19T03:16:48.261Z,12.10
2019-02-19T03:19:17.226Z,12.20
2019-02-19T03:21:46.452Z,12.20
2019-02-19T03:24:15.557Z,12.20
2019-02-19T03:26:44.610Z,12.20
2019-02-19T03:29:13.878Z,12.30
2019-02-19T03:31:43.165Z,12.30
2019-02-19T03:34:12.520Z,12.30
2019-02-19T03:36:41.803Z,12.20
2019-02-19T03:39:10.848Z,12.20
2019-02-19T03:41:39.936Z,12.20
2019-02-19T03:44:09.382Z,12.30
2019-02-19T03:46:38.427Z,12.30
2019-02-19T03:49:07.754Z,12.30
2019-02-19T03:51:36.724Z,12.30
2019-02-19T03:54:05.779Z,12.30
2019-02-19T03:56:35.121Z,12.30
2019-02-19T03:59:04.247Z,12.30
2019-02-19T04:01:33.572Z,12.30
2019-02-19T04:04:02.756Z,12.30
2019-02-19T04:06:32.471Z,12.30
2019-02-19T04:09:01.774Z,12.30
2019-02-19T04:11:31.061Z,12.30
2019-02-19T04:14:00.254Z,12.30
2019-02-19T04:16:29.332Z,12.30
2019-02-19T04:18:58.404Z,12.30
2019-02-19T04:21:27.352Z,12.30
2019-02-19T04:23:56.576Z,12.20
2019-02-19T04:26:25.665Z,12.20
2019-02-19T04:28:54.741Z,12.20
2019-02-19T04:31:24.083Z,12.20
2019-02-19T04:33:53.130Z,12.20
2019-02-19T04:36:22.671Z,12.10
2019-02-19T04:38:51.668Z,12.10
2019-02-19T04:41:20.718Z,12.10
2019-02-19T04:43:50.619Z,12.00
2019-02-19T04:46:19.687Z,12.00
2019-02-19T04:48:48.642Z,12.00
2019-02-19T04:51:17.786Z,11.90
2019-02-19T04:53:46.863Z,11.80
2019-02-19T04:56:15.878Z,11.80
2019-02-19T04:58:44.862Z,11.70
2019-02-19T05:01:13.785Z,11.70
2019-02-19T05:03:43.072Z,11.60
2019-02-19T05:06:12.096Z,11.60
2019-02-19T05:08:41.136Z,11.60
2019-02-19T05:11:10.651Z,11.60
2019-02-19T05:13:40.098Z,11.50
2019-02-19T05:16:09.460Z,11.50
2019-02-19T05:18:38.510Z,11.50
2019-02-19T05:21:07.671Z,11.60
2019-02-19T05:23:37.172Z,11.60
2019-02-19T05:26:06.432Z,11.60
2019-02-19T05:28:35.542Z,11.60
2019-02-19T05:31:04.711Z,11.50
2019-02-19T05:33:33.970Z,11.50
2019-02-19T05:36:03.055Z,11.50
2019-02-19T05:38:32.096Z,11.50
2019-02-19T05:41:01.178Z,11.50
2019-02-19T05:43:30.279Z,11.50
2019-02-19T05:45:59.306Z,11.50
2019-02-19T05:48:28.767Z,11.50
2019-02-19T05:50:58.249Z,11.50
2019-02-19T05:53:27.350Z,11.50
2019-02-19T05:55:56.428Z,11.50
2019-02-19T05:58:25.686Z,11.50
2019-02-19T06:00:54.697Z,11.50
2019-02-19T06:03:23.804Z,11.60
2019-02-19T06:05:52.819Z,11.60
2019-02-19T06:08:21.806Z,11.60
2019-02-19T06:10:51.160Z,11.60
2019-02-19T06:13:20.535Z,11.60
2019-02-19T06:15:49.521Z,11.60
2019-02-19T06:18:18.559Z,11.60
2019-02-19T06:20:47.569Z,11.70
2019-02-19T06:23:16.652Z,11.70
2019-02-19T06:25:45.706Z,11.70
2019-02-19T06:28:14.718Z,11.70
2019-02-19T06:30:44.015Z,11.70
2019-02-19T06:33:13.451Z,11.70
2019-02-19T06:35:42.568Z,11.60
2019-02-19T06:38:11.746Z,11.70
2019-02-19T06:40:40.843Z,11.60
2019-02-19T06:43:09.828Z,11.60
2019-02-19T06:45:39.252Z,11.60
2019-02-19T06:48:08.205Z,11.70
2019-02-19T06:50:37.545Z,11.70
2019-02-19T06:53:07.135Z,11.80
2019-02-19T06:55:36.453Z,11.80
2019-02-19T06:58:06.179Z,11.90
2019-02-19T07:00:35.973Z,12.00
2019-02-19T07:03:27.890Z,12.00
2019-02-19T07:05:56.962Z,12.00
2019-02-19T07:08:25.971Z,12.00
2019-02-19T07:10:55.052Z,12.00
2019-02-19T07:13:24.016Z,12.00
2019-02-19T07:15:53.020Z,12.00
2019-02-19T07:18:22.708Z,12.10
2019-02-19T07:20:51.823Z,12.10
2019-02-19T07:23:21.420Z,12.10
2019-02-19T07:25:50.882Z,12.10
2019-02-19T07:28:20.683Z,12.00
2019-02-19T07:30:50.264Z,12.10
2019-02-19T07:33:19.348Z,12.10
2019-02-19T07:35:48.449Z,12.10
2019-02-19T07:38:17.512Z,12.10
2019-02-19T07:40:46.907Z,12.10
2019-02-19T07:43:16.470Z,12.20
2019-02-19T07:45:52.385Z,12.20
2019-02-19T07:48:21.437Z,12.20
2019-02-19T07:50:50.873Z,13.40
2019-02-19T07:53:19.909Z,12.20
2019-02-19T07:55:49.021Z,12.20
2019-02-19T07:58:18.849Z,12.30
2019-02-19T08:00:48.088Z,12.30
2019-02-19T08:03:17.873Z,12.40
2019-02-19T08:05:46.977Z,12.30
2019-02-19T08:08:16.005Z,12.40
2019-02-19T08:10:45.047Z,12.50
2019-02-19T08:13:14.474Z,12.50
2019-02-19T08:15:43.473Z,12.50
2019-02-19T08:18:12.423Z,12.60
2019-02-19T08:20:41.926Z,12.60
2019-02-19T08:23:10.978Z,12.70
2019-02-19T08:25:40.140Z,12.70
2019-02-19T08:28:09.549Z,12.80
2019-02-19T08:30:38.732Z,12.90
2019-02-19T08:33:07.738Z,13.00
2019-02-19T08:35:36.651Z,13.00
2019-02-19T08:38:05.782Z,13.10
2019-02-19T08:40:35.055Z,13.20
2019-02-19T08:43:04.351Z,13.40
2019-02-19T08:45:33.424Z,13.50
2019-02-19T08:48:03.123Z,13.60
2019-02-19T08:50:32.666Z,13.60
2019-02-19T08:53:01.758Z,13.70
2019-02-19T08:55:30.970Z,13.70
2019-02-19T08:57:59.995Z,13.80
2019-02-19T09:00:29.430Z,13.80
2019-02-19T09:02:58.697Z,13.70
2019-02-19T09:05:27.765Z,13.70
2019-02-19T09:07:56.943Z,13.70
2019-02-19T09:10:26.388Z,13.70
2019-02-19T09:12:55.426Z,13.70
2019-02-19T09:15:24.633Z,13.80
2019-02-19T09:17:53.638Z,13.80
2019-02-19T09:20:22.667Z,13.80
2019-02-19T09:22:52.587Z,13.80
2019-02-19T09:25:21.747Z,14.00
2019-02-19T09:27:51.368Z,14.20
2019-02-19T09:30:20.409Z,14.30
2019-02-19T09:32:49.598Z,14.30
2019-02-19T09:35:18.724Z,14.30
2019-02-19T09:37:48.006Z,14.30
2019-02-19T09:40:17.433Z,14.30
2019-02-19T09:42:46.801Z,14.10
2019-02-19T09:45:15.952Z,14.00
2019-02-19T09:47:45.204Z,13.80
2019-02-19T09:50:14.418Z,13.60
2019-02-19T09:52:44.007Z,13.40
2019-02-19T09:55:13.159Z,13.30
2019-02-19T09:57:42.457Z,13.30
2019-02-19T10:00:12.348Z,13.40
2019-02-19T10:02:41.544Z,13.40
2019-02-19T10:05:11.470Z,13.50
2019-02-19T10:07:40.842Z,13.70
2019-02-19T10:10:12.142Z,14.00
2019-02-19T10:12:41.053Z,14.20
2019-02-19T10:15:11.206Z,14.40
2019-02-19T10:17:40.546Z,14.40
2019-02-19T10:20:10.081Z,14.40
2019-02-19T10:22:39.776Z,14.40
2019-02-19T10:25:10.266Z,14.30
2019-02-19T10:27:39.551Z,14.30
2019-02-19T10:30:10.936Z,14.30
2019-02-19T10:32:40.135Z,14.20
2019-02-19T10:35:10.220Z,14.00
2019-02-19T10:37:39.308Z,14.00
2019-02-19T10:40:10.241Z,14.00
2019-02-19T10:42:39.454Z,14.00
2019-02-19T10:45:10.693Z,13.90
2019-02-19T10:47:39.680Z,13.80
2019-02-19T10:50:09.291Z,13.70
2019-02-19T10:52:38.427Z,13.60
2019-02-19T10:55:07.633Z,13.40
2019-02-19T10:57:36.728Z,13.30
2019-02-19T11:00:08.515Z,13.40
2019-02-19T11:02:38.204Z,13.40
2019-02-19T11:05:07.613Z,13.50
2019-02-19T11:07:36.727Z,13.70
2019-02-19T11:10:07.157Z,13.90
2019-02-19T11:12:36.721Z,14.10
2019-02-19T11:15:06.433Z,14.30
2019-02-19T11:17:35.952Z,14.30
2019-02-19T11:20:05.670Z,14.40
2019-02-19T11:22:35.000Z,14.50
2019-02-19T11:25:04.155Z,14.40
2019-02-19T11:27:33.880Z,14.50
2019-02-19T11:30:03.283Z,14.50
2019-02-19T11:32:32.355Z,14.70
2019-02-19T11:35:01.810Z,14.80
2019-02-19T11:37:31.119Z,14.90
2019-02-19T11:40:00.256Z,14.90
2019-02-19T11:42:30.550Z,14.70
2019-02-19T11:44:59.556Z,14.70
2019-02-19T11:47:28.755Z,14.90
2019-02-19T11:49:58.267Z,15.00
2019-02-19T11:52:30.257Z,15.10
2019-02-19T11:54:59.560Z,15.10
2019-02-19T11:57:28.630Z,15.20
2019-02-19T11:59:58.010Z,15.10
2019-02-19T12:02:32.745Z,15.00
2019-02-19T12:04:58.267Z,14.90
2019-02-19T12:07:27.430Z,15.00
2019-02-19T12:09:56.777Z,15.00
2019-02-19T12:12:25.924Z,15.10
2019-02-19T12:14:55.014Z,15.10
2019-02-19T12:17:24.166Z,15.20
2019-02-19T12:19:53.173Z,15.30
2019-02-19T12:22:22.901Z,15.40
2019-02-19T12:24:51.981Z,15.30
2019-02-19T12:27:22.102Z,15.40
2019-02-19T12:29:51.749Z,15.70
2019-02-19T12:32:21.095Z,16.10
2019-02-19T12:34:50.123Z,16.30
2019-02-19T12:37:19.015Z,16.40
2019-02-19T12:39:48.188Z,16.40
2019-02-19T12:42:17.235Z,16.50
2019-02-19T12:44:46.392Z,16.60
2019-02-19T12:47:15.751Z,16.70
2019-02-19T12:49:44.756Z,16.50
2019-02-19T12:52:14.079Z,16.40
2019-02-19T12:54:43.408Z,16.10
2019-02-19T12:57:14.678Z,16.10
2019-02-19T12:59:44.131Z,16.20
2019-02-19T13:02:13.207Z,16.20
2019-02-19T13:04:43.124Z,16.30
2019-02-19T13:07:12.687Z,16.30
2019-02-19T13:09:42.047Z,16.10
2019-02-19T13:12:11.795Z,15.80
2019-02-19T13:14:40.922Z,15.60
2019-02-19T13:17:10.015Z,15.60
2019-02-19T13:19:39.311Z,15.40
2019-02-19T13:22:08.441Z,15.50
2019-02-19T13:24:37.366Z,15.60
2019-02-19T13:27:06.411Z,15.80
2019-02-19T13:29:35.774Z,16.00
2019-02-19T13:32:04.907Z,15.90
2019-02-19T13:34:33.938Z,16.00
2019-02-19T13:37:03.100Z,16.00
2019-02-19T13:39:32.189Z,16.20
2019-02-19T13:42:01.580Z,16.20
2019-02-19T13:44:31.217Z,16.10
2019-02-19T13:47:00.319Z,16.10
2019-02-19T13:49:29.457Z,15.90
2019-02-19T13:52:04.049Z,15.50
2019-02-19T13:54:41.285Z,15.10
2019-02-19T13:57:10.723Z,14.90
2019-02-19T13:59:40.061Z,14.80
2019-02-19T14:02:09.040Z,14.60
2019-02-19T14:04:38.686Z,14.40
2019-02-19T14:07:07.728Z,14.30
2019-02-19T14:09:36.780Z,14.20
2019-02-19T14:12:05.850Z,14.20
2019-02-19T14:15:00.289Z,14.20
2019-02-19T14:17:29.799Z,14.20
2019-02-19T14:20:23.917Z,14.10
2019-02-19T14:23:17.970Z,14.10
2019-02-19T14:26:15.119Z,14.10
2019-02-19T14:29:05.432Z,14.20
2019-02-19T14:31:56.893Z,14.30
2019-02-19T14:34:43.705Z,14.40
2019-02-19T14:37:31.428Z,14.40
2019-02-19T14:40:10.912Z,14.40
2019-02-19T14:43:14.305Z,14.50
2019-02-19T14:46:08.869Z,14.60
2019-02-19T14:49:09.109Z,14.50
2019-02-19T14:51:50.532Z,14.50
2019-02-19T14:54:40.551Z,14.80
2019-02-19T14:57:24.608Z,15.00
2019-02-19T15:00:12.224Z,15.00
2019-02-19T15:03:16.143Z,15.00
2019-02-19T15:06:20.042Z,15.00
2019-02-19T15:09:11.459Z,14.90
2019-02-19T15:12:14.643Z,14.60
2019-02-19T15:15:06.695Z,14.60
2019-02-19T15:17:55.145Z,14.50
2019-02-19T15:20:44.815Z,14.40
2019-02-19T15:23:23.797Z,14.40
2019-02-19T15:26:10.873Z,14.30
2019-02-19T15:28:59.022Z,14.20
2019-02-19T15:31:42.063Z,14.30
2019-02-19T15:34:33.239Z,14.30
2019-02-19T15:37:20.077Z,14.40
2019-02-19T15:40:07.146Z,14.50
2019-02-19T15:43:04.337Z,14.50
2019-02-19T15:45:51.170Z,14.50
2019-02-19T15:48:48.568Z,14.60
2019-02-19T15:51:54.790Z,14.60
2019-02-19T15:54:36.776Z,14.50
2019-02-19T15:57:23.558Z,14.40
2019-02-19T16:00:07.378Z,14.40
2019-02-19T16:03:04.944Z,14.30
2019-02-19T16:06:08.554Z,14.40
2019-02-19T16:08:47.627Z,14.40
2019-02-19T16:11:41.729Z,14.40
2019-02-19T16:14:23.991Z,14.40
2019-02-19T16:17:12.195Z,14.30
2019-02-19T16:19:46.342Z,14.20
2019-02-19T16:22:37.799Z,14.10
2019-02-19T16:25:28.790Z,13.90
2019-02-19T16:28:15.211Z,13.70
2019-02-19T16:31:02.696Z,13.60
2019-02-19T16:33:41.998Z,13.40
2019-02-19T16:36:26.197Z,13.20
2019-02-19T16:39:03.109Z,13.10
2019-02-19T16:41:45.251Z,13.00
2019-02-19T16:44:29.107Z,13.00
2019-02-19T16:47:20.322Z,13.00
2019-02-19T16:49:55.792Z,13.00
2019-02-19T16:52:50.911Z,13.00
2019-02-19T16:55:31.780Z,12.90
2019-02-19T16:58:26.213Z,12.90
2019-02-19T17:01:29.949Z,12.80
2019-02-19T17:04:10.369Z,12.80
2019-02-19T17:07:07.670Z,12.70
2019-02-19T17:09:59.003Z,12.60
2019-02-19T17:12:50.625Z,12.50
2019-02-19T17:15:41.546Z,12.50
2019-02-19T17:18:39.160Z,12.40
2019-02-19T17:21:27.251Z,12.40
2019-02-19T17:24:09.532Z,12.30
2019-02-19T17:26:51.925Z,12.30
2019-02-19T17:29:33.549Z,12.20
2019-02-19T17:32:34.320Z,12.20
2019-02-19T17:35:27.463Z,12.20
2019-02-19T17:38:14.758Z,12.10
2019-02-19T17:40:59.827Z,12.10
2019-02-19T17:43:51.221Z,12.00
2019-02-19T17:46:33.225Z,12.00
2019-02-19T17:49:13.312Z,12.00
2019-02-19T17:52:00.409Z,11.90
2019-02-19T17:54:48.851Z,11.90
2019-02-19T17:57:36.362Z,11.90
2019-02-19T18:00:24.917Z,11.80
2019-02-19T18:03:19.633Z,11.80
2019-02-19T18:06:00.082Z,11.70
2019-02-19T18:08:57.206Z,11.70
2019-02-19T18:11:51.152Z,11.70
2019-02-19T18:14:49.812Z,11.70
2019-02-19T18:17:26.932Z,11.70
2019-02-19T18:19:56.084Z,11.70
2019-02-19T18:22:25.164Z,11.70
2019-02-19T18:24:54.208Z,11.70
2019-02-19T18:27:23.377Z,11.70
2019-02-19T18:29:52.775Z,11.60
2019-02-19T18:32:22.095Z,11.60
2019-02-19T18:34:51.567Z,11.60
2019-02-19T18:37:20.912Z,11.60
2019-02-19T18:39:50.043Z,11.60
2019-02-19T18:42:19.171Z,11.60
2019-02-19T18:44:49.545Z,11.50
2019-02-19T18:47:18.826Z,11.50
2019-02-19T18:49:48.413Z,11.50
2019-02-19T18:52:17.385Z,11.50
2019-02-19T18:54:46.503Z,11.40
2019-02-19T18:57:16.050Z,11.40
2019-02-19T18:59:45.400Z,11.50
2019-02-19T19:02:14.493Z,11.40
2019-02-19T19:04:44.121Z,11.40
2019-02-19T19:07:18.070Z,11.40
2019-02-19T19:09:47.228Z,11.40
2019-02-19T19:12:16.527Z,11.40
2019-02-19T19:14:45.616Z,11.40
2019-02-19T19:17:14.833Z,11.40
2019-02-19T19:19:43.795Z,11.40
2019-02-19T19:22:13.137Z,11.40
2019-02-19T19:24:42.118Z,11.40
2019-02-19T19:27:11.193Z,11.30
2019-02-19T19:29:40.583Z,11.30
2019-02-19T19:32:10.780Z,11.30
2019-02-19T19:34:39.739Z,11.30
2019-02-19T19:37:09.110Z,11.30
2019-02-19T19:39:38.481Z,11.20
2019-02-19T19:42:07.811Z,11.20
2019-02-19T19:44:37.111Z,11.20
2019-02-19T19:47:06.187Z,11.20
2019-02-19T19:49:35.225Z,11.20
2019-02-19T19:52:04.424Z,11.20
2019-02-19T19:54:33.503Z,11.20
2019-02-19T19:57:04.356Z,11.20
2019-02-19T19:59:33.724Z,11.20
2019-02-19T20:02:02.855Z,11.10
2019-02-19T20:04:32.450Z,11.10
2019-02-19T20:07:01.748Z,11.10
2019-02-19T20:09:31.375Z,11.00
2019-02-19T20:12:01.046Z,11.00
2019-02-19T20:14:30.083Z,11.00
2019-02-19T20:16:59.085Z,10.90
2019-02-19T20:19:28.789Z,10.90
2019-02-19T20:21:57.895Z,10.90
2019-02-19T20:24:29.066Z,10.90
2019-02-19T20:26:58.228Z,10.90
2019-02-19T20:29:28.346Z,10.80
2019-02-19T20:31:57.825Z,10.80
2019-02-19T20:34:27.159Z,10.80
2019-02-19T20:36:56.238Z,10.80
2019-02-19T20:39:25.311Z,10.70
2019-02-19T20:41:54.534Z,10.70
2019-02-19T20:44:23.708Z,10.70
2019-02-19T20:46:53.212Z,10.60
2019-02-19T20:49:22.619Z,10.60
2019-02-19T20:51:51.972Z,10.60
2019-02-19T20:54:21.045Z,10.50
2019-02-19T20:56:50.904Z,10.50
2019-02-19T20:59:20.013Z,10.50
2019-02-19T21:01:49.260Z,10.40
2019-02-19T21:04:18.671Z,10.40
2019-02-19T21:07:07.286Z,10.40
2019-02-19T21:09:43.962Z,10.40
2019-02-19T21:12:08.770Z,10.40
2019-02-19T21:14:38.733Z,10.30
2019-02-19T21:17:07.941Z,10.40
2019-02-19T21:19:37.789Z,10.30
2019-02-19T21:22:07.091Z,10.30
2019-02-19T21:24:36.232Z,10.30
2019-02-19T21:27:05.325Z,10.30
2019-02-19T21:29:34.715Z,10.20
2019-02-19T21:32:03.925Z,10.20
2019-02-19T21:34:33.144Z,10.20
2019-02-19T21:37:02.036Z,10.20
2019-02-19T21:39:31.454Z,10.10
2019-02-19T21:42:01.594Z,10.10
2019-02-19T21:44:30.792Z,10.10
2019-02-19T21:47:00.119Z,10.00
2019-02-19T21:49:29.178Z,10.00
2019-02-19T21:51:58.440Z,10.00
2019-02-19T21:54:27.852Z,10.00
2019-02-19T21:56:57.168Z,9.90
2019-02-19T21:59:26.209Z,9.90
2019-02-19T22:01:55.538Z,9.90
2019-02-19T22:04:24.565Z,9.90
2019-02-19T22:06:53.880Z,9.90
2019-02-19T22:09:23.268Z,9.90
2019-02-19T22:11:52.589Z,9.80
2019-02-19T22:14:21.692Z,9.80
2019-02-19T22:16:50.620Z,9.80
2019-02-19T22:19:19.782Z,9.80
2019-02-19T22:22:03.853Z,9.70
2019-02-19T22:24:36.988Z,9.70
2019-02-19T22:27:07.398Z,9.70
2019-02-19T22:29:37.022Z,9.70
2019-02-19T22:32:06.350Z,9.70
2019-02-19T22:34:36.574Z,9.70
2019-02-19T22:37:05.799Z,9.60
2019-02-19T22:39:34.864Z,9.60
2019-02-19T22:42:04.240Z,9.60
2019-02-19T22:44:33.321Z,9.60
2019-02-19T22:47:02.385Z,9.60
2019-02-19T22:49:32.296Z,9.60
2019-02-19T22:52:01.454Z,9.60
2019-02-19T22:54:49.982Z,9.60
2019-02-19T22:57:19.449Z,9.60
2019-02-19T22:59:49.326Z,9.60
2019-02-19T23:02:29.678Z,9.60
2019-02-19T23:04:59.240Z,9.70
2019-02-19T23:07:28.393Z,9.80
2019-02-19T23:09:58.173Z,9.80
2019-02-19T23:12:27.771Z,9.90
2019-02-19T23:14:58.078Z,10.00
2019-02-19T23:17:27.089Z,10.00
2019-02-19T23:19:56.199Z,10.00
2019-02-19T23:22:25.298Z,10.00
2019-02-19T23:24:54.765Z,9.90
2019-02-19T23:27:23.934Z,9.80
2019-02-19T23:29:53.285Z,9.70
2019-02-19T23:32:22.585Z,9.70
2019-02-19T23:35:10.775Z,9.70
2019-02-19T23:37:39.855Z,9.60
2019-02-19T23:40:09.309Z,9.60
2019-02-19T23:42:38.356Z,9.50
2019-02-19T23:45:07.802Z,9.50
2019-02-19T23:47:36.896Z,9.50
2019-02-19T23:50:06.128Z,9.40
2019-02-19T23:52:35.058Z,9.40
2019-02-19T23:55:04.267Z,9.40
2019-02-19T23:57:33.625Z,9.50
